createdAt,value
2023-05-05T00:00:30.552Z,13.80
2023-05-05T00:01:34.438Z,14.57
2023-05-05T00:02:38.235Z,14.25
2023-05-05T00:03:42.189Z,14.43
2023-05-05T00:04:45.832Z,14.70
2023-05-05T00:05:50.227Z,14.65
2023-05-05T00:06:53.898Z,15.07
2023-05-05T00:07:57.545Z,15.23
2023-05-05T00:09:02.804Z,15.07
2023-05-05T00:10:07.298Z,13.43
2023-05-05T00:11:11.093Z,15.07
2023-05-05T00:12:14.821Z,14.25
2023-05-05T00:13:18.979Z,13.82
2023-05-05T00:14:22.698Z,13.95
2023-05-05T00:15:26.345Z,14.30
2023-05-05T00:16:30.103Z,14.63
2023-05-05T00:17:33.760Z,15.50
2023-05-05T00:18:37.409Z,14.88
2023-05-05T00:19:41.489Z,14.93
2023-05-05T00:20:45.513Z,14.73
2023-05-05T00:21:49.186Z,14.25
2023-05-05T00:22:52.846Z,13.82
2023-05-05T00:23:56.497Z,13.48
2023-05-05T00:25:01.847Z,12.60
2023-05-05T00:26:05.455Z,12.53
2023-05-05T00:27:09.106Z,12.90
2023-05-05T00:28:12.785Z,11.80
2023-05-05T00:29:16.419Z,13.40
2023-05-05T00:30:20.024Z,14.75
2023-05-05T00:31:23.661Z,14.23
2023-05-05T00:32:27.297Z,14.25
2023-05-05T00:33:30.921Z,13.88
2023-05-05T00:34:34.548Z,13.52
2023-05-05T00:35:38.123Z,13.77
2023-05-05T00:36:41.692Z,13.43
2023-05-05T00:37:45.282Z,13.38
2023-05-05T00:38:48.931Z,13.70
2023-05-05T00:39:52.568Z,13.30
2023-05-05T00:40:57.776Z,14.25
2023-05-05T00:42:01.400Z,13.13
2023-05-05T00:43:05.021Z,14.13
2023-05-05T00:44:08.622Z,13.70
2023-05-05T00:45:13.445Z,13.18
2023-05-05T00:46:25.012Z,14.25
2023-05-05T00:47:28.816Z,13.33
2023-05-05T00:48:33.319Z,13.70
2023-05-05T00:49:37.886Z,14.38
2023-05-05T00:50:44.533Z,13.95
2023-05-05T00:51:48.161Z,14.00
2023-05-05T00:52:53.458Z,14.27
2023-05-05T00:53:57.198Z,14.25
2023-05-05T00:55:01.069Z,14.13
2023-05-05T00:56:06.912Z,14.20
2023-05-05T00:57:11.161Z,14.55
2023-05-05T00:58:14.897Z,14.47
2023-05-05T00:59:18.679Z,14.80
2023-05-05T01:00:22.446Z,14.25
2023-05-05T01:01:26.340Z,13.52
2023-05-05T01:02:30.082Z,12.50
2023-05-05T01:03:33.781Z,13.27
2023-05-05T01:04:37.402Z,13.05
2023-05-05T01:05:56.798Z,13.95
2023-05-05T01:07:14.547Z,14.25
2023-05-05T01:08:35.801Z,14.40
2023-05-05T01:09:46.824Z,13.73
2023-05-05T01:10:58.184Z,14.30
2023-05-05T01:12:12.884Z,15.07
2023-05-05T01:13:26.486Z,15.77
2023-05-05T01:14:37.643Z,14.43
2023-05-05T01:15:47.077Z,13.70
2023-05-05T01:16:59.915Z,14.88
2023-05-05T01:18:10.429Z,13.70
2023-05-05T01:19:30.648Z,13.57
2023-05-05T01:20:41.970Z,13.93
2023-05-05T01:21:50.511Z,13.13
2023-05-05T01:22:59.275Z,14.55
2023-05-05T01:24:27.229Z,13.27
2023-05-05T01:25:56.909Z,12.90
2023-05-05T01:27:28.778Z,13.85
2023-05-05T01:29:01.556Z,13.60
2023-05-05T01:30:21.534Z,13.82
2023-05-05T01:31:38.584Z,14.43
2023-05-05T01:32:45.999Z,12.63
2023-05-05T01:33:53.793Z,13.50
2023-05-05T01:35:02.201Z,12.70
2023-05-05T01:36:12.624Z,13.98
2023-05-05T01:37:22.870Z,13.35
2023-05-05T01:38:33.219Z,13.00
2023-05-05T01:39:38.131Z,13.25
2023-05-05T01:40:45.943Z,12.30
2023-05-05T01:41:52.071Z,12.77
2023-05-05T01:42:57.963Z,12.68
2023-05-05T01:44:05.626Z,12.00
2023-05-05T01:45:12.400Z,12.15
2023-05-05T01:46:16.983Z,12.70
2023-05-05T01:47:24.424Z,11.77
2023-05-05T01:48:28.158Z,12.55
2023-05-05T01:49:34.332Z,11.63
2023-05-05T01:50:38.528Z,11.30
2023-05-05T01:51:43.143Z,11.03
2023-05-05T01:52:48.152Z,11.05
2023-05-05T01:53:54.028Z,11.40
2023-05-05T01:54:59.448Z,11.38
2023-05-05T01:56:04.568Z,12.30
2023-05-05T01:57:09.365Z,10.97
2023-05-05T01:58:15.195Z,11.85
2023-05-05T01:59:21.042Z,11.80
2023-05-05T02:00:25.869Z,10.70
2023-05-05T02:01:30.950Z,11.38
2023-05-05T02:02:38.127Z,11.10
2023-05-05T02:03:43.359Z,11.43
2023-05-05T02:04:48.542Z,11.65
2023-05-05T02:05:53.975Z,12.02
2023-05-05T02:06:58.962Z,11.98
2023-05-05T02:08:05.278Z,11.63
2023-05-05T02:09:11.636Z,10.38
2023-05-05T02:10:16.048Z,11.63
2023-05-05T02:11:20.267Z,10.80
2023-05-05T02:12:24.193Z,10.80
2023-05-05T02:13:30.736Z,9.97
2023-05-05T02:14:36.505Z,10.32
2023-05-05T02:15:41.374Z,10.45
2023-05-05T02:16:45.919Z,10.68
2023-05-05T02:17:52.553Z,11.80
2023-05-05T02:18:57.859Z,11.90
2023-05-05T02:20:03.027Z,10.25
2023-05-05T02:21:07.850Z,11.10
2023-05-05T02:22:12.029Z,11.65
2023-05-05T02:23:15.846Z,11.60
2023-05-05T02:24:19.508Z,11.30
2023-05-05T02:25:23.445Z,11.68
2023-05-05T02:26:29.082Z,11.18
2023-05-05T02:27:36.056Z,11.43
2023-05-05T02:28:46.218Z,10.95
2023-05-05T02:29:51.498Z,10.80
2023-05-05T02:30:59.056Z,10.13
2023-05-05T02:32:06.314Z,10.82
2023-05-05T02:33:16.031Z,10.93
2023-05-05T02:34:28.141Z,10.95
2023-05-05T02:35:37.519Z,10.47
2023-05-05T02:36:42.979Z,11.13
2023-05-05T02:37:52.072Z,10.25
2023-05-05T02:38:59.940Z,11.35
2023-05-05T02:40:06.320Z,11.48
2023-05-05T02:41:14.373Z,10.60
2023-05-05T02:42:21.384Z,10.45
2023-05-05T02:43:26.701Z,11.60
2023-05-05T02:44:32.053Z,11.82
2023-05-05T02:45:35.722Z,11.18
2023-05-05T02:46:39.431Z,10.90
2023-05-05T02:47:43.168Z,11.02
2023-05-05T02:48:48.527Z,11.23
2023-05-05T02:49:52.669Z,10.70
2023-05-05T02:50:56.352Z,12.00
2023-05-05T02:52:00.155Z,11.17
2023-05-05T02:53:04.049Z,11.45
2023-05-05T02:54:08.084Z,11.50
2023-05-05T02:55:12.236Z,11.13
2023-05-05T02:56:24.895Z,11.30
2023-05-05T02:57:35.101Z,11.23
2023-05-05T02:58:47.467Z,10.73
2023-05-05T02:59:57.339Z,11.25
2023-05-05T03:01:12.052Z,11.60
2023-05-05T03:02:19.306Z,11.23
2023-05-05T03:03:29.102Z,11.13
2023-05-05T03:04:40.484Z,10.98
2023-05-05T03:05:50.057Z,11.30
2023-05-05T03:06:57.247Z,11.48
2023-05-05T03:08:04.953Z,10.75
2023-05-05T03:09:13.554Z,11.00
2023-05-05T03:10:21.858Z,11.07
2023-05-05T03:11:32.728Z,11.63
2023-05-05T03:12:40.659Z,11.65
2023-05-05T03:13:45.646Z,11.48
2023-05-05T03:14:52.517Z,12.73
2023-05-05T03:15:56.953Z,11.98
2023-05-05T03:17:02.143Z,11.77
2023-05-05T03:18:09.079Z,11.65
2023-05-05T03:19:14.386Z,11.75
2023-05-05T03:20:21.050Z,11.57
2023-05-05T03:21:24.925Z,11.77
2023-05-05T03:22:28.955Z,12.13
2023-05-05T03:23:33.756Z,12.20
2023-05-05T03:24:37.442Z,11.70
2023-05-05T03:25:45.101Z,12.17
2023-05-05T03:26:50.076Z,11.98
2023-05-05T03:27:53.668Z,12.32
2023-05-05T03:28:57.254Z,12.55
2023-05-05T03:30:00.926Z,11.93
2023-05-05T03:31:04.932Z,12.20
2023-05-05T03:32:09.427Z,12.02
2023-05-05T03:33:13.200Z,12.45
2023-05-05T03:34:16.751Z,12.20
2023-05-05T03:35:22.283Z,12.82
2023-05-05T03:36:27.893Z,13.37
2023-05-05T03:37:32.839Z,12.57
2023-05-05T03:38:36.399Z,13.27
2023-05-05T03:39:40.030Z,12.93
2023-05-05T03:40:44.796Z,13.23
2023-05-05T03:41:48.685Z,13.30
2023-05-05T03:42:52.390Z,13.65
2023-05-05T03:43:56.060Z,14.15
2023-05-05T03:44:59.677Z,13.60
2023-05-05T03:46:03.306Z,13.20
2023-05-05T03:47:07.328Z,13.00
2023-05-05T03:48:10.946Z,13.93
2023-05-05T03:49:14.566Z,14.27
2023-05-05T03:50:18.357Z,12.88
2023-05-05T03:51:23.983Z,12.55
2023-05-05T03:52:27.630Z,13.87
2023-05-05T03:53:31.952Z,12.80
2023-05-05T03:54:35.533Z,13.95
2023-05-05T03:55:39.162Z,12.32
2023-05-05T03:56:42.719Z,13.63
2023-05-05T03:57:46.287Z,13.10
2023-05-05T03:58:49.906Z,14.05
2023-05-05T03:59:53.561Z,14.18
2023-05-05T04:00:57.148Z,14.25
2023-05-05T04:02:00.834Z,14.43
2023-05-05T04:03:04.713Z,14.73
2023-05-05T04:04:08.613Z,13.80
2023-05-05T04:05:12.368Z,13.45
2023-05-05T04:06:16.066Z,13.52
2023-05-05T04:07:21.404Z,14.45
2023-05-05T04:08:24.962Z,13.77
2023-05-05T04:09:28.747Z,13.52
2023-05-05T04:10:32.481Z,13.73
2023-05-05T04:11:36.120Z,15.73
2023-05-05T04:12:39.747Z,14.55
2023-05-05T04:13:43.336Z,14.30
2023-05-05T04:14:46.939Z,14.27
2023-05-05T04:15:50.552Z,14.85
2023-05-05T04:16:54.576Z,14.50
2023-05-05T04:17:58.211Z,14.43
2023-05-05T04:19:01.846Z,13.43
2023-05-05T04:20:06.162Z,14.70
2023-05-05T04:21:09.880Z,15.40
2023-05-05T04:22:13.538Z,14.60
2023-05-05T04:23:18.803Z,13.82
2023-05-05T04:24:22.492Z,14.77
2023-05-05T04:25:26.062Z,13.73
2023-05-05T04:26:29.675Z,13.55
2023-05-05T04:27:33.328Z,14.13
2023-05-05T04:28:37.001Z,13.40
2023-05-05T04:29:40.675Z,13.97
2023-05-05T04:30:44.275Z,13.88
2023-05-05T04:31:47.938Z,14.88
2023-05-05T04:32:51.720Z,14.05
2023-05-05T04:33:55.354Z,14.50
2023-05-05T04:34:58.910Z,13.63
2023-05-05T04:36:02.659Z,14.30
2023-05-05T04:37:06.246Z,14.45
2023-05-05T04:38:09.896Z,13.85
2023-05-05T04:39:15.161Z,13.52
2023-05-05T04:40:19.092Z,14.07
2023-05-05T04:41:22.736Z,14.13
2023-05-05T04:42:26.309Z,13.30
2023-05-05T04:43:29.920Z,14.15
2023-05-05T04:44:34.423Z,14.35
2023-05-05T04:45:38.105Z,14.07
2023-05-05T04:46:41.988Z,14.18
2023-05-05T04:47:45.576Z,14.52
2023-05-05T04:48:49.256Z,12.80
2023-05-05T04:49:54.821Z,12.18
2023-05-05T04:50:58.396Z,12.60
2023-05-05T04:52:02.047Z,12.52
2023-05-05T04:53:05.650Z,11.98
2023-05-05T04:54:09.324Z,12.52
2023-05-05T04:55:14.714Z,13.25
2023-05-05T04:56:18.415Z,13.37
2023-05-05T04:57:22.037Z,12.25
2023-05-05T04:58:25.639Z,12.05
2023-05-05T04:59:29.213Z,12.93
2023-05-05T05:00:32.982Z,12.90
2023-05-05T05:01:38.418Z,13.50
2023-05-05T05:02:42.389Z,14.07
2023-05-05T05:03:46.086Z,14.50
2023-05-05T05:04:49.748Z,12.52
2023-05-05T05:05:53.420Z,13.05
2023-05-05T05:06:59.104Z,13.10
2023-05-05T05:08:02.938Z,12.48
2023-05-05T05:09:06.618Z,12.60
2023-05-05T05:10:11.139Z,12.35
2023-05-05T05:11:16.618Z,12.23
2023-05-05T05:12:20.364Z,11.53
2023-05-05T05:13:24.010Z,12.65
2023-05-05T05:14:27.639Z,11.50
2023-05-05T05:15:31.167Z,11.80
2023-05-05T05:16:34.814Z,11.20
2023-05-05T05:17:38.416Z,11.17
2023-05-05T05:18:42.174Z,11.48
2023-05-05T05:19:45.940Z,11.45
2023-05-05T05:20:49.534Z,10.75
2023-05-05T05:21:53.149Z,11.57
2023-05-05T05:22:56.802Z,10.93
2023-05-05T05:24:00.525Z,12.10
2023-05-05T05:25:04.224Z,11.13
2023-05-05T05:26:07.813Z,11.48
2023-05-05T05:27:12.968Z,11.23
2023-05-05T05:28:16.578Z,10.93
2023-05-05T05:29:20.174Z,11.20
2023-05-05T05:30:23.880Z,11.10
2023-05-05T05:31:27.454Z,11.40
2023-05-05T05:32:31.081Z,12.25
2023-05-05T05:33:34.736Z,11.07
2023-05-05T05:34:38.340Z,10.93
2023-05-05T05:35:41.898Z,11.45
2023-05-05T05:36:45.528Z,10.98
2023-05-05T05:37:50.138Z,11.32
2023-05-05T05:38:53.717Z,10.60
2023-05-05T05:39:57.430Z,11.25
2023-05-05T05:41:01.053Z,11.90
2023-05-05T05:42:04.684Z,10.77
2023-05-05T05:43:09.935Z,10.63
2023-05-05T05:44:13.501Z,11.07
2023-05-05T05:45:17.309Z,11.35
2023-05-05T05:46:20.996Z,10.35
2023-05-05T05:47:24.925Z,10.88
2023-05-05T05:48:28.591Z,11.45
2023-05-05T05:49:32.137Z,11.50
2023-05-05T05:50:35.805Z,11.15
2023-05-05T05:51:39.356Z,10.35
2023-05-05T05:52:42.910Z,9.65
2023-05-05T05:53:46.578Z,10.27
2023-05-05T05:54:50.354Z,10.03
2023-05-05T05:55:54.002Z,10.30
2023-05-05T05:56:57.650Z,11.32
2023-05-05T05:58:01.274Z,10.15
2023-05-05T05:59:06.497Z,10.43
2023-05-05T06:00:11.415Z,10.23
2023-05-05T06:01:15.094Z,10.43
2023-05-05T06:02:18.807Z,10.77
2023-05-05T06:03:22.548Z,10.48
2023-05-05T06:04:26.363Z,12.07
2023-05-05T06:05:29.950Z,11.30
2023-05-05T06:06:33.748Z,10.48
2023-05-05T06:07:37.317Z,11.00
2023-05-05T06:08:40.938Z,11.30
2023-05-05T06:09:44.653Z,10.57
2023-05-05T06:10:48.226Z,10.40
2023-05-05T06:11:51.821Z,11.07
2023-05-05T06:12:55.563Z,10.43
2023-05-05T06:13:59.214Z,10.73
2023-05-05T06:15:05.165Z,11.18
2023-05-05T06:16:09.556Z,10.77
2023-05-05T06:17:13.200Z,11.05
2023-05-05T06:18:16.838Z,11.15
2023-05-05T06:19:20.515Z,10.77
2023-05-05T06:20:24.246Z,11.45
2023-05-05T06:21:27.865Z,11.73
2023-05-05T06:22:31.440Z,11.23
2023-05-05T06:23:35.018Z,11.25
2023-05-05T06:24:38.617Z,11.20
2023-05-05T06:25:42.186Z,10.82
2023-05-05T06:26:45.730Z,11.93
2023-05-05T06:27:49.339Z,11.02
2023-05-05T06:28:52.902Z,11.57
2023-05-05T06:29:56.524Z,11.13
2023-05-05T06:31:01.838Z,11.13
2023-05-05T06:32:05.731Z,11.37
2023-05-05T06:33:09.425Z,11.82
2023-05-05T06:34:13.077Z,10.95
2023-05-05T06:35:16.852Z,11.45
2023-05-05T06:36:20.405Z,11.23
2023-05-05T06:37:24.111Z,11.67
2023-05-05T06:38:27.678Z,10.82
2023-05-05T06:39:31.276Z,11.43
2023-05-05T06:40:34.832Z,11.27
2023-05-05T06:41:38.458Z,11.10
2023-05-05T06:42:42.001Z,11.67
2023-05-05T06:43:45.704Z,11.80
2023-05-05T06:44:49.283Z,10.43
2023-05-05T06:45:52.869Z,10.32
2023-05-05T06:46:58.211Z,10.82
2023-05-05T06:48:01.801Z,11.60
2023-05-05T06:49:05.883Z,10.82
2023-05-05T06:50:10.459Z,10.77
2023-05-05T06:51:14.241Z,10.55
2023-05-05T06:52:17.804Z,11.10
2023-05-05T06:53:21.393Z,11.13
2023-05-05T06:54:25.037Z,11.40
2023-05-05T06:55:28.680Z,12.15
2023-05-05T06:56:32.723Z,11.85
2023-05-05T06:57:36.350Z,11.13
2023-05-05T06:58:39.975Z,11.10
2023-05-05T06:59:43.551Z,11.50
2023-05-05T07:00:47.144Z,11.63
2023-05-05T07:01:50.815Z,11.38
2023-05-05T07:02:56.134Z,12.07
2023-05-05T07:03:59.816Z,11.03
2023-05-05T07:05:03.445Z,11.07
2023-05-05T07:06:07.161Z,11.63
2023-05-05T07:07:10.826Z,11.20
2023-05-05T07:08:14.527Z,11.60
2023-05-05T07:09:18.048Z,11.10
2023-05-05T07:10:22.815Z,11.43
2023-05-05T07:11:26.354Z,11.20
2023-05-05T07:12:31.191Z,11.07
2023-05-05T07:13:34.838Z,11.60
2023-05-05T07:14:38.453Z,11.20
2023-05-05T07:15:42.754Z,10.73
2023-05-05T07:16:46.396Z,11.27
2023-05-05T07:17:50.087Z,11.52
2023-05-05T07:18:55.277Z,11.68
2023-05-05T07:19:58.845Z,11.37
2023-05-05T07:21:02.432Z,11.35
2023-05-05T07:22:06.066Z,11.13
2023-05-05T07:23:09.748Z,10.75
2023-05-05T07:24:13.421Z,10.95
2023-05-05T07:25:16.996Z,11.00
2023-05-05T07:26:20.697Z,10.93
2023-05-05T07:27:24.404Z,11.05
2023-05-05T07:28:28.122Z,11.93
2023-05-05T07:29:31.914Z,11.60
2023-05-05T07:30:35.539Z,10.50
2023-05-05T07:31:42.489Z,11.32
2023-05-05T07:32:46.339Z,11.25
2023-05-05T07:33:50.099Z,10.60
2023-05-05T07:34:55.390Z,11.40
2023-05-05T07:35:59.034Z,11.73
2023-05-05T07:37:02.751Z,11.45
2023-05-05T07:38:06.930Z,11.25
2023-05-05T07:39:11.773Z,11.68
2023-05-05T07:40:15.575Z,10.80
2023-05-05T07:41:19.735Z,10.93
2023-05-05T07:42:23.296Z,10.60
2023-05-05T07:43:26.873Z,10.50
2023-05-05T07:44:30.510Z,10.52
2023-05-05T07:45:34.650Z,10.90
2023-05-05T07:46:38.315Z,10.40
2023-05-05T07:47:42.000Z,11.23
2023-05-05T07:48:45.591Z,10.80
2023-05-05T07:49:49.116Z,11.20
2023-05-05T07:50:54.323Z,11.18
2023-05-05T07:51:57.902Z,10.50
2023-05-05T07:53:13.014Z,11.32
2023-05-05T07:54:18.464Z,11.10
2023-05-05T07:55:22.220Z,10.43
2023-05-05T07:56:25.982Z,10.55
2023-05-05T07:57:29.616Z,10.20
2023-05-05T07:58:33.264Z,10.82
2023-05-05T07:59:36.895Z,10.90
2023-05-05T08:00:40.686Z,11.00
2023-05-05T08:01:44.280Z,10.95
2023-05-05T08:02:48.976Z,11.60
2023-05-05T08:03:52.706Z,11.27
2023-05-05T08:04:56.355Z,10.80
2023-05-05T08:06:08.286Z,10.90
2023-05-05T08:07:12.255Z,10.43
2023-05-05T08:08:15.830Z,10.43
2023-05-05T08:09:19.436Z,10.10
2023-05-05T08:10:23.169Z,10.75
2023-05-05T08:11:29.008Z,10.90
2023-05-05T08:12:33.177Z,10.35
2023-05-05T08:13:36.813Z,10.47
2023-05-05T08:14:41.743Z,10.35
2023-05-05T08:15:45.429Z,10.65
2023-05-05T08:16:49.252Z,10.57
2023-05-05T08:17:54.041Z,10.38
2023-05-05T08:18:57.629Z,10.50
2023-05-05T08:20:01.297Z,10.80
2023-05-05T08:21:07.147Z,10.63
2023-05-05T08:22:10.823Z,9.93
2023-05-05T08:23:14.405Z,10.45
2023-05-05T08:24:18.145Z,10.00
2023-05-05T08:25:21.878Z,10.50
2023-05-05T08:26:25.594Z,10.80
2023-05-05T08:27:29.187Z,10.73
2023-05-05T08:28:32.759Z,10.48
2023-05-05T08:29:36.343Z,10.37
2023-05-05T08:30:39.993Z,10.52
2023-05-05T08:31:43.558Z,10.15
2023-05-05T08:32:47.201Z,9.63
2023-05-05T08:33:50.828Z,9.93
2023-05-05T08:34:54.419Z,10.57
2023-05-05T08:35:58.139Z,10.18
2023-05-05T08:37:03.343Z,10.25
2023-05-05T08:38:06.925Z,10.55
2023-05-05T08:39:10.485Z,10.45
2023-05-05T08:40:14.997Z,9.73
2023-05-05T08:41:19.536Z,9.70
2023-05-05T08:42:36.162Z,10.73
2023-05-05T08:43:41.291Z,9.90
2023-05-05T08:44:44.896Z,10.00
2023-05-05T08:45:49.747Z,9.93
2023-05-05T08:46:53.675Z,10.20
2023-05-05T08:47:58.486Z,9.85
2023-05-05T08:49:03.426Z,9.82
2023-05-05T08:50:10.729Z,9.77
2023-05-05T08:51:18.924Z,10.47
2023-05-05T08:52:25.240Z,9.73
2023-05-05T08:53:38.842Z,9.98
2023-05-05T08:54:51.166Z,10.05
2023-05-05T08:55:57.190Z,10.18
2023-05-05T08:57:03.393Z,10.60
2023-05-05T08:58:07.465Z,10.20
2023-05-05T08:59:12.618Z,9.70
2023-05-05T09:00:18.923Z,9.65
2023-05-05T09:01:22.806Z,9.82
2023-05-05T09:02:30.287Z,10.00
2023-05-05T09:03:35.040Z,10.60
2023-05-05T09:04:38.874Z,9.98
2023-05-05T09:05:44.291Z,9.70
2023-05-05T09:06:48.137Z,9.75
2023-05-05T09:07:53.354Z,9.40
2023-05-05T09:08:59.523Z,9.80
2023-05-05T09:10:04.925Z,9.73
2023-05-05T09:11:08.673Z,9.48
2023-05-05T09:12:12.288Z,9.85
2023-05-05T09:13:16.065Z,9.70
2023-05-05T09:14:19.772Z,9.50
2023-05-05T09:15:23.393Z,8.90
2023-05-05T09:16:27.364Z,9.45
2023-05-05T09:17:31.010Z,9.18
2023-05-05T09:18:37.616Z,9.90
2023-05-05T09:20:04.242Z,9.38
2023-05-05T09:21:20.935Z,10.20
2023-05-05T09:22:34.392Z,9.40
2023-05-05T09:23:39.604Z,8.90
2023-05-05T09:24:56.075Z,10.23
2023-05-05T09:26:06.608Z,10.10
2023-05-05T09:27:23.138Z,9.88
2023-05-05T09:28:27.392Z,10.25
2023-05-05T09:29:31.066Z,10.00
2023-05-05T09:30:35.543Z,9.60
2023-05-05T09:31:39.164Z,9.77
2023-05-05T09:32:50.372Z,9.18
2023-05-05T09:33:54.183Z,9.77
2023-05-05T09:35:01.417Z,10.10
2023-05-05T09:36:05.510Z,9.30
2023-05-05T09:37:09.088Z,10.02
2023-05-05T09:38:13.020Z,10.05
2023-05-05T09:39:19.724Z,9.75
2023-05-05T09:40:23.259Z,10.27
2023-05-05T09:41:39.090Z,10.10
2023-05-05T09:42:42.961Z,9.75
2023-05-05T09:43:52.297Z,9.38
2023-05-05T09:44:57.384Z,8.57
2023-05-05T09:46:09.099Z,9.75
2023-05-05T09:47:22.361Z,9.90
2023-05-05T09:48:33.267Z,10.88
2023-05-05T09:49:39.707Z,9.15
2023-05-05T09:50:44.588Z,9.20
2023-05-05T09:51:48.916Z,9.65
2023-05-05T09:52:59.472Z,8.80
2023-05-05T09:54:03.174Z,9.05
2023-05-05T09:55:17.684Z,9.05
2023-05-05T09:56:21.311Z,9.60
2023-05-05T09:57:29.937Z,8.52
2023-05-05T09:58:33.657Z,8.77
2023-05-05T09:59:37.446Z,9.35
2023-05-05T10:00:41.178Z,9.50
2023-05-05T10:01:44.817Z,9.32
2023-05-05T10:02:48.663Z,9.05
2023-05-05T10:03:52.540Z,8.43
2023-05-05T10:05:06.823Z,9.10
2023-05-05T10:06:10.485Z,9.27
2023-05-05T10:07:24.172Z,8.95
2023-05-05T10:08:29.881Z,9.10
2023-05-05T10:09:33.505Z,8.93
2023-05-05T10:10:45.036Z,8.88
2023-05-05T10:11:48.756Z,8.85
2023-05-05T10:12:52.772Z,9.50
2023-05-05T10:13:56.894Z,10.07
2023-05-05T10:15:02.986Z,9.63
2023-05-05T10:16:09.504Z,9.30
2023-05-05T10:17:20.669Z,9.68
